WetterOnline ( https://www.wetteronline.de )

Wetter aktuell Boizenburg

Aktuelles Wetter: Boizenburg (46m)

6-stündlich | Neueste Meldungen
Ortszeit Temperatur Wetter
Sa, 04.02. 1:00 3.0° C bewölkt
Fr, 03.02. 19:00 5.9° C leichter Regen
Fr, 03.02. 13:00 7.7° C bewölkt
Fr, 03.02. 7:00 7.2° C Sprühregen
Fr, 03.02. 1:00 3.5° C leichter Regen
Do, 02.02. 19:00 3.4° C bedeckt
Do, 02.02. 13:00 6.7° C bewölkt
Do, 02.02. 7:00 4.3° C bewölkt
Ortszeit Temperatur Wetter
Sa, 04.02. 6:00 2.0° C bedeckt
Sa, 04.02. 5:40 1.7° C bewölkt
Sa, 04.02. 5:30 1.9° C bewölkt
Sa, 04.02. 5:20 1.9° C bewölkt
Sa, 04.02. 5:10 1.9° C bedeckt
Sa, 04.02. 5:00 2.2° C bedeckt
Sa, 04.02. 4:50 2.2° C bedeckt
Sa, 04.02. 4:30 1.7° C bedeckt
Sa, 04.02. 4:00 1.7° C bewölkt
Sa, 04.02. 3:30 1.5° C leicht bewölkt
Sa, 04.02. 3:00 2.6° C bedeckt
Ortszeit Relative Feuchte Sichtweite
Sa, 04.02. 1:00 85% >70 km
Fr, 03.02. 19:00 88% 9 km
Fr, 03.02. 13:00 72% 19 km
Fr, 03.02. 7:00 94% 10 km
Fr, 03.02. 1:00 95% 11 km
Do, 02.02. 19:00 82% 50 km
Do, 02.02. 13:00 72% 45 km
Do, 02.02. 7:00 85% 35 km
Ortszeit Relative Feuchte Sichtweite
Sa, 04.02. 6:00 85% 65 km
Sa, 04.02. 5:40 88% -
Sa, 04.02. 5:30 88% 65 km
Sa, 04.02. 5:20 88% -
Sa, 04.02. 5:10 87% -
Sa, 04.02. 5:00 83% >70 km
Sa, 04.02. 4:50 83% -
Sa, 04.02. 4:30 88% 65 km
Sa, 04.02. 4:00 90% 55 km
Sa, 04.02. 3:30 90% 50 km
Sa, 04.02. 3:00 87% >70 km
Ortszeit Niederschlagsmenge Niederschlagsart
Sa, 04.02. 1:00 0.5 l/m2 in 6 Std. Regen
Fr, 03.02. 19:00 5 l/m2 in 12 Std. Regen
Fr, 03.02. 13:00 5 l/m2 in 6 Std. Regen
Fr, 03.02. 7:00 6 l/m2 in 12 Std. Regen
Fr, 03.02. 1:00 4 l/m2 in 6 Std. Regen
Do, 02.02. 19:00 0.1 l/m2 in 12 Std. -
Do, 02.02. 13:00 0.1 l/m2 in 6 Std. Sprühregen
Do, 02.02. 7:00 2 l/m2 in 12 Std. Regen
Ortszeit Niederschlagsmenge Niederschlagsart
Sa, 04.02. 6:00 0.0 l/m2 in 1 Std. -
Sa, 04.02. 5:40 keine Meldung -
Sa, 04.02. 5:30 0.0 l/m2 in 30 Min -
Sa, 04.02. 5:20 keine Meldung -
Sa, 04.02. 5:10 keine Meldung -
Sa, 04.02. 5:00 0.0 l/m2 in 1 Std. -
Sa, 04.02. 4:50 keine Meldung -
Sa, 04.02. 4:30 0.0 l/m2 in 30 Min -
Sa, 04.02. 4:00 0.0 l/m2 in 1 Std. Regen
Sa, 04.02. 3:30 0.0 l/m2 in 30 Min -
Sa, 04.02. 3:00 0.3 l/m2 in 1 Std. Regen
Ortszeit Stärke Spitze Richtung
km/h Bft. km/h Grad Sektor
Sa, 04.02. 1:00 14 3 58 340° N
Fr, 03.02. 19:00 25 4 68 290° W
Fr, 03.02. 13:00 29 5 79 290° W
Fr, 03.02. 7:00 26 4 52 260° W
Fr, 03.02. 1:00 17 3 28 160° S
Do, 02.02. 19:00 7 2 32 240° SW
Do, 02.02. 13:00 14 3 40 300° NW
Do, 02.02. 7:00 19 3 59 290° W
Ortszeit Stärke Spitze Richtung
km/h Bft. km/h Grad Sektor
Sa, 04.02. 6:00 6 1 11 350° N
Sa, 04.02. 5:40 4 1 - 320° NW
Sa, 04.02. 5:30 4 1 11 10° N
Sa, 04.02. 5:20 4 1 - 10° N
Sa, 04.02. 5:10 4 1 - 320° NW
Sa, 04.02. 5:00 7 2 22 340° N
Sa, 04.02. 4:50 7 2 - 340° N
Sa, 04.02. 4:30 6 1 9 340° N
Sa, 04.02. 4:00 6 1 13 340° N
Sa, 04.02. 3:30 6 1 13 330° NW
Sa, 04.02. 3:00 9 2 24 350° N
Ortszeit Untergrenze Bedeckung Gattung
total tief tief mittel hoch
Sa, 04.02. 1:00 480 m 7/8 7/8 - - -
Fr, 03.02. 19:00 450 m 7/8 7/8 - - -
Fr, 03.02. 13:00 870 m 7/8 7/8 - - -
Fr, 03.02. 7:00 210 m 8/8 8/8 - - -
Fr, 03.02. 1:00 180 m 8/8 8/8 - - -
Do, 02.02. 19:00 3300 m 8/8 8/8 - - -
Do, 02.02. 13:00 690 m 7/8 7/8 - - -
Do, 02.02. 7:00 480 m 7/8 7/8 - - -
Ortszeit Bedeckungsgrad in Achtel und Wolkenuntergrenze
Sa, 04.02. 6:00 8(870m)
Sa, 04.02. 5:40 7
Sa, 04.02. 5:30 2(630m) 7(870m)
Sa, 04.02. 5:20 2(630m) 7(870m)
Sa, 04.02. 5:10 8
Sa, 04.02. 5:00 8(870m)
Sa, 04.02. 4:50 8(870m)
Sa, 04.02. 4:30 8(840m)
Sa, 04.02. 4:00 7(840m)
Sa, 04.02. 3:30 2(870m)
Sa, 04.02. 3:00 8(870m)
Ortszeit Luftdruck NN (hPa) Tendenz (hPa in 3 Std.)
Sa, 04.02. 1:00 1027 + 5,6
Fr, 03.02. 19:00 1017 + 2,1
Fr, 03.02. 13:00 1014 + 1,7
Fr, 03.02. 7:00 1012 - 2,3
Fr, 03.02. 1:00 1018 - 2,8
Do, 02.02. 19:00 1022 + 1,9
Do, 02.02. 13:00 1019 + 2,2
Do, 02.02. 7:00 1014 + 2,3
Ortszeit Luftdruck NN (hPa) Tendenz (hPa in 3 Std.)
Sa, 04.02. 6:00 1034 + 3,8
Sa, 04.02. 5:40 1034 keine Meldung
Sa, 04.02. 5:30 1033 + 3,9
Sa, 04.02. 5:20 1033 keine Meldung
Sa, 04.02. 5:10 1033 keine Meldung
Sa, 04.02. 5:00 1032 + 3,8
Sa, 04.02. 4:50 1032 keine Meldung
Sa, 04.02. 4:30 1032 + 3,9
Sa, 04.02. 4:00 1031 + 4,1
Sa, 04.02. 3:30 1030 + 4,1
Sa, 04.02. 3:00 1030 + 4,4
Ortszeit Schneehöhe (cm)
Sa, 04.02. 1:00 0
Fr, 03.02. 19:00 0
Fr, 03.02. 13:00 0
Fr, 03.02. 7:00 0
Fr, 03.02. 1:00 0
Do, 02.02. 19:00 0
Do, 02.02. 13:00 0
Do, 02.02. 7:00 0
Ortszeit Schneehöhe (cm)
Sa, 04.02. 6:00 0
Sa, 04.02. 5:40 0
Sa, 04.02. 5:30 0
Sa, 04.02. 5:20 0
Sa, 04.02. 5:10 0
Sa, 04.02. 5:00 0
Sa, 04.02. 4:50 0
Sa, 04.02. 4:30 0
Sa, 04.02. 4:00 0
Sa, 04.02. 3:30 0
Sa, 04.02. 3:00 0
Link zu dieser Seite / Seite empfehlen

Das Wetter in ...